createdAt,value
2023-05-23T00:02:13.777Z,24.94
2023-05-23T00:05:03.502Z,24.93
2023-05-23T00:07:50.174Z,24.55
2023-05-23T00:10:37.589Z,24.90
2023-05-23T00:13:23.842Z,24.83
2023-05-23T00:16:10.497Z,24.68
2023-05-23T00:18:57.535Z,24.55
2023-05-23T00:21:45.598Z,24.52
2023-05-23T00:24:31.902Z,24.50
2023-05-23T00:27:19.245Z,24.13
2023-05-23T00:30:06.201Z,24.41
2023-05-23T00:32:54.486Z,24.34
2023-05-23T00:35:41.452Z,24.66
2023-05-23T00:38:28.663Z,24.60
2023-05-23T00:41:14.576Z,24.74
2023-05-23T00:44:03.477Z,24.73
2023-05-23T00:46:53.325Z,24.47
2023-05-23T00:49:39.702Z,24.46
2023-05-23T00:52:25.780Z,24.60
2023-05-23T00:55:12.737Z,24.61
2023-05-23T00:57:59.093Z,24.67
2023-05-23T01:00:46.734Z,24.48
2023-05-23T01:03:32.728Z,24.31
2023-05-23T01:06:19.158Z,24.48
2023-05-23T01:09:05.477Z,24.48
2023-05-23T01:11:55.902Z,24.46
2023-05-23T01:14:45.541Z,24.14
2023-05-23T01:17:37.014Z,24.16
2023-05-23T01:20:24.651Z,24.24
2023-05-23T01:23:42.414Z,24.09
2023-05-23T01:26:34.983Z,23.99
2023-05-23T01:29:26.496Z,24.02
2023-05-23T01:32:13.672Z,23.77
2023-05-23T01:35:00.779Z,23.99
2023-05-23T01:37:47.117Z,24.11
2023-05-23T01:40:33.070Z,23.84
2023-05-23T01:43:19.061Z,23.95
2023-05-23T01:46:07.448Z,23.88
2023-05-23T01:48:54.766Z,23.89
2023-05-23T01:51:41.060Z,23.92
2023-05-23T01:54:29.283Z,23.74
2023-05-23T01:57:16.114Z,23.37
2023-05-23T02:00:02.284Z,23.44
2023-05-23T02:03:01.084Z,23.66
2023-05-23T02:05:47.191Z,23.87
2023-05-23T02:08:33.098Z,23.56
2023-05-23T02:11:19.380Z,23.69
2023-05-23T02:14:05.801Z,23.39
2023-05-23T02:17:22.053Z,23.32
2023-05-23T02:24:41.770Z,23.03
2023-05-23T02:27:28.604Z,23.18
2023-05-23T02:30:15.322Z,23.17
2023-05-23T02:33:05.919Z,23.21
2023-05-23T02:35:52.310Z,23.15
2023-05-23T02:38:38.665Z,23.01
2023-05-23T02:41:27.194Z,22.96
2023-05-23T02:44:13.400Z,22.83
2023-05-23T02:46:59.947Z,22.95
2023-05-23T02:49:45.985Z,22.93
2023-05-23T02:52:33.302Z,23.24
2023-05-23T02:55:19.990Z,23.20
2023-05-23T02:58:09.764Z,23.11
2023-05-23T03:00:55.730Z,23.23
2023-05-23T03:03:42.106Z,23.31
2023-05-23T03:06:28.839Z,22.98
2023-05-23T03:09:16.983Z,22.90
2023-05-23T03:12:03.392Z,22.91
2023-05-23T03:14:51.452Z,22.81
2023-05-23T03:17:38.278Z,22.71
2023-05-23T03:20:24.709Z,22.81
2023-05-23T03:23:11.129Z,22.77
2023-05-23T03:25:57.462Z,22.68
2023-05-23T03:28:43.854Z,22.81
2023-05-23T03:31:32.141Z,23.14
2023-05-23T03:34:19.011Z,23.28
2023-05-23T03:37:05.784Z,23.10
2023-05-23T03:39:52.274Z,22.72
2023-05-23T03:42:40.075Z,22.73
2023-05-23T03:45:28.619Z,22.94
2023-05-23T03:48:16.338Z,22.76
2023-05-23T03:51:03.137Z,22.87
2023-05-23T03:53:50.621Z,22.78
2023-05-23T03:56:37.346Z,22.77
2023-05-23T03:59:24.316Z,22.85
2023-05-23T04:02:11.593Z,23.17
2023-05-23T04:04:59.415Z,23.38
2023-05-23T04:07:45.884Z,23.19
2023-05-23T04:10:32.348Z,23.14
2023-05-23T04:13:19.205Z,23.14
2023-05-23T04:16:06.516Z,23.23
2023-05-23T04:18:53.056Z,23.27
2023-05-23T04:21:40.452Z,23.09
2023-05-23T04:24:32.734Z,23.00
2023-05-23T04:27:19.833Z,23.05
2023-05-23T04:30:09.179Z,23.04
2023-05-23T04:32:59.965Z,22.71
2023-05-23T04:35:49.323Z,22.86
2023-05-23T04:38:38.415Z,22.73
2023-05-23T04:41:24.995Z,22.80
2023-05-23T04:44:24.369Z,22.83
2023-05-23T04:47:24.634Z,22.88
2023-05-23T04:50:16.625Z,22.69
2023-05-23T04:53:04.384Z,22.86
2023-05-23T04:55:52.364Z,23.00
2023-05-23T04:58:40.567Z,22.90
2023-05-23T05:01:28.215Z,22.81
2023-05-23T05:04:14.651Z,22.47
2023-05-23T05:07:03.513Z,22.83
2023-05-23T05:09:49.715Z,22.95
2023-05-23T05:12:37.968Z,22.97
2023-05-23T05:15:25.001Z,22.91
2023-05-23T05:18:14.965Z,22.82
2023-05-23T05:21:01.506Z,22.89
2023-05-23T05:23:48.811Z,22.94
2023-05-23T05:26:37.475Z,22.96
2023-05-23T05:29:25.705Z,22.89
2023-05-23T05:32:12.011Z,22.81
2023-05-23T05:34:59.140Z,22.85
2023-05-23T05:37:47.015Z,22.60
2023-05-23T05:40:33.650Z,22.80
2023-05-23T05:43:21.135Z,22.78
2023-05-23T05:46:09.005Z,22.68
2023-05-23T05:48:55.305Z,22.86
2023-05-23T05:51:41.812Z,22.80
2023-05-23T05:54:27.798Z,22.83
2023-05-23T05:57:14.419Z,22.85
2023-05-23T06:00:01.073Z,22.79
2023-05-23T06:02:51.598Z,22.82
2023-05-23T06:05:48.485Z,22.48
2023-05-23T06:08:34.756Z,22.77
2023-05-23T06:11:21.148Z,22.79
2023-05-23T06:14:09.527Z,22.57
2023-05-23T06:16:58.112Z,22.75
2023-05-23T06:19:45.861Z,22.61
2023-05-23T06:22:32.058Z,22.65
2023-05-23T06:25:18.264Z,22.03
2023-05-23T06:28:06.750Z,22.55
2023-05-23T06:30:53.033Z,22.70
2023-05-23T06:33:39.418Z,22.76
2023-05-23T06:36:26.668Z,22.80
2023-05-23T06:39:14.513Z,22.86
2023-05-23T06:42:01.128Z,22.76
2023-05-23T06:44:53.346Z,22.66
2023-05-23T06:47:39.246Z,22.66
2023-05-23T06:50:25.767Z,22.61
2023-05-23T06:53:18.841Z,22.73
2023-05-23T06:56:06.823Z,22.72
2023-05-23T06:58:59.710Z,22.53
2023-05-23T07:01:46.856Z,22.51
2023-05-23T07:04:33.854Z,22.54
2023-05-23T07:07:24.570Z,22.52
2023-05-23T07:10:13.023Z,22.54
2023-05-23T07:12:59.931Z,22.30
2023-05-23T07:15:47.814Z,22.53
2023-05-23T07:18:36.801Z,22.28
2023-05-23T07:21:24.674Z,22.27
2023-05-23T07:24:11.224Z,22.26
2023-05-23T07:26:59.264Z,22.21
2023-05-23T07:29:46.253Z,22.08
2023-05-23T07:32:32.952Z,22.14
2023-05-23T07:35:24.040Z,22.12
2023-05-23T07:38:10.097Z,22.11
2023-05-23T07:41:10.100Z,22.17
2023-05-23T07:43:59.483Z,22.16
2023-05-23T07:46:45.687Z,21.72
2023-05-23T07:49:31.897Z,22.03
2023-05-23T07:52:18.115Z,21.92
2023-05-23T07:55:04.822Z,22.00
2023-05-23T07:57:54.970Z,22.01
2023-05-23T08:00:44.251Z,21.81
2023-05-23T08:03:43.008Z,21.84
2023-05-23T08:06:34.828Z,21.85
2023-05-23T08:09:25.605Z,21.99
2023-05-23T08:12:15.550Z,21.98
2023-05-23T08:15:03.817Z,21.81
2023-05-23T08:17:58.023Z,21.70
2023-05-23T08:20:44.380Z,21.86
2023-05-23T08:23:30.466Z,21.88
2023-05-23T08:26:17.101Z,21.59
2023-05-23T08:29:04.647Z,21.65
2023-05-23T08:31:51.854Z,21.74
2023-05-23T08:34:39.801Z,21.46
2023-05-23T08:37:26.232Z,21.65
2023-05-23T08:40:15.458Z,21.45
2023-05-23T08:43:07.940Z,21.45
2023-05-23T08:45:54.963Z,21.21
2023-05-23T08:48:43.406Z,21.17
2023-05-23T08:51:31.872Z,21.34
2023-05-23T08:54:22.279Z,21.31
2023-05-23T08:57:08.850Z,20.98
2023-05-23T09:00:02.356Z,21.09
2023-05-23T09:02:49.539Z,21.18
2023-05-23T09:05:52.477Z,20.98
2023-05-23T09:08:40.801Z,20.84
2023-05-23T09:11:27.560Z,21.08
2023-05-23T09:14:17.975Z,21.02
2023-05-23T09:17:05.328Z,20.91
2023-05-23T09:19:52.770Z,20.77
2023-05-23T09:22:56.749Z,20.57
2023-05-23T09:25:48.728Z,20.86
2023-05-23T09:28:36.632Z,20.91
2023-05-23T09:31:27.386Z,21.00
2023-05-23T09:34:14.913Z,20.92
2023-05-23T09:37:01.367Z,20.47
2023-05-23T09:39:49.888Z,20.73
2023-05-23T09:42:42.759Z,20.79
2023-05-23T09:45:31.238Z,20.77
2023-05-23T09:48:17.511Z,20.33
2023-05-23T09:51:05.994Z,20.09
2023-05-23T09:53:52.142Z,20.43
2023-05-23T09:56:43.522Z,20.65
2023-05-23T09:59:32.772Z,20.45
2023-05-23T10:02:31.805Z,20.64
2023-05-23T10:05:29.246Z,20.36
2023-05-23T10:08:26.667Z,20.26
2023-05-23T10:11:49.811Z,20.42
2023-05-23T10:14:39.948Z,20.43
2023-05-23T10:17:32.004Z,20.39
2023-05-23T10:20:19.214Z,20.25
2023-05-23T10:23:06.215Z,20.02
2023-05-23T10:25:52.554Z,20.13
2023-05-23T10:28:38.838Z,20.16
2023-05-23T10:31:26.256Z,20.27
2023-05-23T10:34:17.052Z,20.26
2023-05-23T10:37:05.198Z,20.41
2023-05-23T10:39:58.510Z,20.49
2023-05-23T10:42:51.035Z,20.54
2023-05-23T10:45:43.619Z,20.84
2023-05-23T10:48:36.184Z,20.81
2023-05-23T10:51:23.148Z,20.92
2023-05-23T10:54:12.717Z,20.74
2023-05-23T10:57:05.495Z,20.82
2023-05-23T10:59:52.205Z,20.69
2023-05-23T11:02:38.412Z,20.46
2023-05-23T11:05:28.265Z,20.77
2023-05-23T11:08:16.187Z,20.78
2023-05-23T11:11:03.376Z,20.26
2023-05-23T11:13:57.317Z,20.64
2023-05-23T11:16:46.422Z,20.67
2023-05-23T11:19:32.843Z,20.85
2023-05-23T11:22:21.451Z,20.38
2023-05-23T11:25:08.808Z,19.82
2023-05-23T11:27:55.088Z,20.10
2023-05-23T11:30:42.200Z,20.36
2023-05-23T11:33:31.328Z,20.50
2023-05-23T11:36:17.401Z,20.40
2023-05-23T11:39:05.241Z,20.26
2023-05-23T11:42:00.227Z,19.97
2023-05-23T11:44:50.034Z,20.42
2023-05-23T11:47:41.861Z,20.75
2023-05-23T11:50:28.302Z,20.78
2023-05-23T11:53:17.378Z,21.21
2023-05-23T11:56:05.529Z,21.41
2023-05-23T11:58:51.704Z,21.82
2023-05-23T12:01:38.147Z,21.97
2023-05-23T12:04:26.907Z,22.23
2023-05-23T12:07:13.114Z,22.13
2023-05-23T12:09:59.260Z,21.64
2023-05-23T12:12:47.365Z,22.30
2023-05-23T12:15:33.578Z,22.13
2023-05-23T12:18:20.557Z,22.45
2023-05-23T12:21:08.522Z,22.55
2023-05-23T12:23:55.285Z,22.42
2023-05-23T12:26:47.796Z,22.55
2023-05-23T12:29:37.656Z,22.77
2023-05-23T12:32:25.978Z,22.80
2023-05-23T12:35:14.174Z,22.89
2023-05-23T12:38:00.698Z,22.90
2023-05-23T12:40:46.857Z,22.80
2023-05-23T12:43:32.888Z,23.09
2023-05-23T12:46:20.483Z,23.14
2023-05-23T12:49:06.674Z,23.12
2023-05-23T12:51:53.455Z,23.20
2023-05-23T12:54:39.777Z,23.02
2023-05-23T12:57:26.091Z,23.39
2023-05-23T13:00:13.323Z,23.38
2023-05-23T13:03:01.334Z,23.70
2023-05-23T13:05:47.916Z,23.65
2023-05-23T13:08:34.342Z,24.27
2023-05-23T13:11:20.534Z,24.38
2023-05-23T13:14:06.999Z,24.51
2023-05-23T13:16:53.184Z,24.18
2023-05-23T13:19:40.925Z,24.22
2023-05-23T13:22:26.906Z,24.20
2023-05-23T13:25:13.524Z,24.38
2023-05-23T13:28:01.324Z,24.50
2023-05-23T13:30:47.750Z,24.48
2023-05-23T13:33:34.536Z,24.93
2023-05-23T13:36:22.142Z,24.92
2023-05-23T13:39:08.358Z,25.16
2023-05-23T13:41:54.619Z,25.28
2023-05-23T13:44:40.602Z,25.12
2023-05-23T13:47:27.044Z,25.36
2023-05-23T13:50:13.346Z,25.48
2023-05-23T13:53:00.886Z,24.89
2023-05-23T13:55:46.798Z,24.80
2023-05-23T13:58:33.120Z,24.73
2023-05-23T14:01:19.621Z,24.22
2023-05-23T14:04:07.245Z,24.24
2023-05-23T14:06:54.388Z,24.63
2023-05-23T14:09:41.965Z,24.36
2023-05-23T14:12:27.860Z,24.29
2023-05-23T14:15:13.891Z,24.11
2023-05-23T14:18:00.328Z,24.18
2023-05-23T14:20:46.774Z,24.05
2023-05-23T14:23:32.698Z,24.17
2023-05-23T14:26:19.974Z,23.79
2023-05-23T14:29:06.253Z,23.99
2023-05-23T14:31:52.750Z,23.94
2023-05-23T14:34:39.072Z,23.98
2023-05-23T14:37:25.096Z,23.99
2023-05-23T14:40:12.624Z,23.79
2023-05-23T14:43:00.225Z,23.71
2023-05-23T14:45:46.722Z,23.92
2023-05-23T14:48:33.258Z,23.96
2023-05-23T14:51:31.085Z,23.81
2023-05-23T14:54:26.212Z,23.98
2023-05-23T14:57:12.619Z,23.72
2023-05-23T14:59:59.885Z,23.78
2023-05-23T15:02:46.530Z,23.92
2023-05-23T15:05:33.003Z,23.83
2023-05-23T15:08:19.347Z,23.93
2023-05-23T15:11:05.385Z,23.88
2023-05-23T15:13:51.608Z,24.19
2023-05-23T15:16:39.550Z,23.85
2023-05-23T15:19:25.664Z,24.01
2023-05-23T15:22:29.842Z,23.64
2023-05-23T15:25:24.394Z,24.07
2023-05-23T15:28:16.742Z,23.76
2023-05-23T15:31:02.976Z,23.63
2023-05-23T15:33:50.705Z,23.69
2023-05-23T15:36:36.879Z,23.35
2023-05-23T15:39:23.210Z,23.57
2023-05-23T15:42:09.152Z,23.44
2023-05-23T15:44:55.357Z,23.54
2023-05-23T15:47:41.660Z,23.71
2023-05-23T15:50:29.635Z,23.60
2023-05-23T15:53:16.028Z,23.76
2023-05-23T15:56:01.971Z,23.87
2023-05-23T15:58:48.092Z,23.65
2023-05-23T16:01:34.583Z,23.59
2023-05-23T16:04:21.032Z,23.44
2023-05-23T16:07:08.922Z,23.43
2023-05-23T16:09:55.135Z,23.42
2023-05-23T16:12:41.312Z,23.63
2023-05-23T16:15:27.251Z,23.34
2023-05-23T16:18:13.193Z,23.06
2023-05-23T16:20:59.646Z,23.15
2023-05-23T16:23:47.105Z,23.37
2023-05-23T16:26:32.989Z,23.46
2023-05-23T16:29:19.117Z,23.37
2023-05-23T16:32:06.206Z,23.27
2023-05-23T16:34:54.451Z,23.10
2023-05-23T16:37:41.066Z,22.96
2023-05-23T16:40:28.851Z,22.93
2023-05-23T16:43:14.816Z,22.79
2023-05-23T16:46:01.284Z,22.78
2023-05-23T16:48:47.664Z,22.73
2023-05-23T16:51:34.242Z,22.71
2023-05-23T16:54:20.256Z,22.76
2023-05-23T16:57:08.011Z,22.51
2023-05-23T16:59:54.498Z,22.43
2023-05-23T17:02:40.734Z,22.24
2023-05-23T17:05:27.266Z,22.17
2023-05-23T17:08:13.500Z,22.05
2023-05-23T17:10:59.988Z,22.08
2023-05-23T17:13:47.680Z,22.03
2023-05-23T17:16:34.328Z,22.10
2023-05-23T17:19:21.358Z,22.24
2023-05-23T17:22:08.031Z,21.76
2023-05-23T17:24:54.159Z,21.86
2023-05-23T17:27:40.574Z,21.82
2023-05-23T17:30:28.288Z,21.44
2023-05-23T17:33:14.371Z,21.15
2023-05-23T17:36:00.264Z,21.38
2023-05-23T17:38:46.635Z,21.24
2023-05-23T17:41:32.695Z,21.34
2023-05-23T17:44:19.538Z,21.23
2023-05-23T17:47:07.745Z,21.10
2023-05-23T17:49:54.039Z,20.75
2023-05-23T17:52:40.478Z,20.81
2023-05-23T17:55:26.509Z,20.88
2023-05-23T17:58:12.574Z,20.93
2023-05-23T18:00:59.005Z,20.89
2023-05-23T18:03:48.785Z,20.84
2023-05-23T18:06:35.310Z,20.67
2023-05-23T18:09:21.483Z,20.63
2023-05-23T18:12:07.927Z,20.43
2023-05-23T18:14:54.108Z,20.54
2023-05-23T18:17:40.694Z,20.54
2023-05-23T18:20:28.604Z,20.13
2023-05-23T18:23:14.586Z,20.17
2023-05-23T18:26:00.523Z,20.32
2023-05-23T18:28:46.604Z,20.16
2023-05-23T18:31:32.656Z,20.07
2023-05-23T18:34:19.112Z,20.06
2023-05-23T18:37:06.532Z,20.12
2023-05-23T18:39:52.811Z,19.97
2023-05-23T18:42:39.107Z,19.99
2023-05-23T18:45:25.763Z,20.08
2023-05-23T18:48:12.187Z,19.85
2023-05-23T18:50:58.612Z,19.42
2023-05-23T18:53:46.499Z,19.56
2023-05-23T18:56:32.769Z,19.55
2023-05-23T18:59:19.096Z,19.52
2023-05-23T19:02:06.935Z,19.33
2023-05-23T19:04:53.330Z,19.29
2023-05-23T19:07:39.783Z,19.49
2023-05-23T19:10:27.413Z,19.28
2023-05-23T19:13:13.991Z,18.94
2023-05-23T19:16:00.389Z,18.87
2023-05-23T19:18:48.259Z,18.85
2023-05-23T19:21:34.726Z,18.81
2023-05-23T19:24:21.267Z,18.77
2023-05-23T19:27:08.977Z,18.90
2023-05-23T19:29:55.132Z,18.75
2023-05-23T19:32:41.386Z,18.86
2023-05-23T19:35:27.687Z,18.85
2023-05-23T19:38:14.031Z,18.75
2023-05-23T19:41:00.021Z,18.61
2023-05-23T19:43:47.650Z,18.56
2023-05-23T19:46:34.091Z,18.56
2023-05-23T19:49:20.939Z,18.53
2023-05-23T19:52:07.142Z,18.46
2023-05-23T19:54:52.974Z,18.42
2023-05-23T19:57:39.384Z,18.37
2023-05-23T20:00:26.749Z,18.31
2023-05-23T20:03:12.755Z,18.30
2023-05-23T20:05:59.846Z,18.22
2023-05-23T20:08:46.270Z,18.18
2023-05-23T20:11:32.196Z,18.00
2023-05-23T20:14:18.763Z,18.04
2023-05-23T20:17:07.903Z,17.89
2023-05-23T20:19:53.730Z,17.90
2023-05-23T20:22:39.705Z,17.86
2023-05-23T20:25:28.317Z,17.78
2023-05-23T20:28:14.244Z,17.67
2023-05-23T20:31:00.240Z,17.64
2023-05-23T20:33:47.728Z,17.59
2023-05-23T20:36:33.979Z,17.38
2023-05-23T20:39:22.087Z,17.42
2023-05-23T20:42:10.360Z,17.21
2023-05-23T20:44:56.867Z,17.38
2023-05-23T20:47:43.620Z,17.16
2023-05-23T20:50:33.693Z,17.29
2023-05-23T20:53:20.172Z,17.31
2023-05-23T20:56:10.116Z,17.27
2023-05-23T20:58:57.278Z,17.25
2023-05-23T21:01:43.670Z,17.20
2023-05-23T21:04:29.891Z,17.04
2023-05-23T21:07:17.073Z,17.15
2023-05-23T21:10:03.427Z,17.04
2023-05-23T21:12:50.823Z,16.95
2023-05-23T21:15:36.935Z,16.82
2023-05-23T21:18:23.382Z,16.95
2023-05-23T21:21:09.415Z,16.90
2023-05-23T21:23:56.974Z,16.98
2023-05-23T21:26:43.499Z,16.99
2023-05-23T21:29:29.495Z,17.05
2023-05-23T21:32:15.410Z,17.01
2023-05-23T21:35:01.421Z,16.97
2023-05-23T21:37:47.317Z,16.96
2023-05-23T21:40:34.894Z,16.88
2023-05-23T21:43:21.117Z,17.13
2023-05-23T21:46:07.169Z,16.95
2023-05-23T21:48:53.542Z,16.90
2023-05-23T21:51:40.087Z,16.94
2023-05-23T21:54:26.349Z,16.85
2023-05-23T21:57:14.169Z,16.79
2023-05-23T22:00:00.428Z,16.79
2023-05-23T22:02:47.816Z,16.74
2023-05-23T22:05:34.001Z,16.69
2023-05-23T22:08:20.622Z,16.65
2023-05-23T22:11:09.381Z,16.99
2023-05-23T22:13:56.850Z,16.66
2023-05-23T22:16:42.962Z,16.58
2023-05-23T22:19:30.305Z,16.51
2023-05-23T22:22:16.601Z,16.40
2023-05-23T22:25:02.496Z,16.35
2023-05-23T22:27:48.541Z,16.55
2023-05-23T22:30:36.406Z,16.39
2023-05-23T22:33:22.774Z,16.51
2023-05-23T22:36:10.298Z,16.23
2023-05-23T22:38:57.051Z,16.07
2023-05-23T22:41:43.257Z,16.08
2023-05-23T22:44:29.295Z,15.93
2023-05-23T22:47:16.653Z,15.87
2023-05-23T22:50:03.858Z,15.92
2023-05-23T22:52:50.660Z,15.90
2023-05-23T22:55:36.825Z,15.84
2023-05-23T22:58:23.149Z,15.82
2023-05-23T23:01:09.560Z,15.82
2023-05-23T23:03:57.327Z,15.83
2023-05-23T23:06:44.396Z,15.79
2023-05-23T23:09:30.885Z,15.78
2023-05-23T23:12:17.028Z,15.68
2023-05-23T23:15:03.069Z,15.78
2023-05-23T23:17:49.201Z,15.62
2023-05-23T23:20:38.787Z,15.52
2023-05-23T23:23:25.086Z,15.46
2023-05-23T23:26:11.517Z,15.37
2023-05-23T23:28:57.761Z,15.35
2023-05-23T23:31:43.840Z,15.35
2023-05-23T23:34:30.507Z,15.35
2023-05-23T23:37:18.141Z,15.23
2023-05-23T23:40:04.896Z,15.11
2023-05-23T23:42:51.237Z,14.89
2023-05-23T23:45:37.164Z,14.86
2023-05-23T23:48:23.128Z,14.84
2023-05-23T23:51:09.495Z,15.60
2023-05-23T23:53:56.726Z,15.09
2023-05-23T23:56:43.075Z,14.88
2023-05-23T23:59:29.189Z,14.47
